Main page
METAR-TAF:

METAR-TAF

Airports :

Den Helder, Netherlands

De Kooy Airfield

latitude: 52-55N, longitude: 004-47E, elevation: 0 m

Current weather observation

The report was made 17 minutes ago, at 03:55 UTC
Wind 18 kt from the West, varying between West/Southwest and Northwest
Temperature 13°C
Humidity 77%
Pressure 1012 hPa
Visibility 10 km or more
Scattered clouds at a height of 1900 ft
Overcast at a height of 2200 ft

METAR: EHKD 230355Z AUTO 28018KT 250V310 9999 SCT019 OVC022 13/09 Q1012 WHT

Time: 06:12 (04:12 UTC)

Forecast

The report was made 3 hours and 27 minutes ago, at 00:45 UTC
Forecast valid from 23 at 01 UTC to 23 at 13 UTC
Wind 16 kt from the West
Visibility 10 km or more
Scattered clouds at a height of 1800 ft
Broken clouds at a height of 2500 ft
Temporary
from 23 at 01 UTC to 23 at 09 UTC
Wind 22 kt from the West/Northwest with gusts up to 32 kt
Scattered clouds at a height of 2000 ft

TAF: EHKD 230045Z 2301/2313 28016KT 9999 SCT018 BKN025 TEMPO 2301/2309 29022G32KT SCT020

Weather observations and forecasts of more than 4000 airports (METAR and TAF reports).

The available stations are represented by yellow and red dots on the map.

Hover mouse over dot to see the name of the station.

Then click to see weather observations and forecasts.

To change the map : click on the green buttons with a black cross to zoom in, on the green button with a dash to zoom out, or on the green arrows for adjacent maps.


METAR-TAF: